Twin Brooks, South Dakota
Current Conditions -  °F | °C
As of 1:14 AM on Saturday 25 Oct 2014 (Local Time) from KVVV Reporting Station
Scattered Clouds Scattered Clouds  
Wind Chill: 14°   Ceiling: Unl
Heat Index: 14°   Visibility: 10mi
Dew Point:   Wind: 9mph
Humidity: 44%   Direction: 300°WNW
Pressure: 30.01"   Gusts: NA
Location:  45.21°N, 96.78°W
Report Text: KVVV 250614Z AUTO 30008KT 10SM SCT120 14/02 A3001 RMK AO2
Loading
Personal Weather Stations






























Interactive Weather Map
Tropical Storm Tracking
New forecast layout! Learn more

10-Day Weather Forecast

Advertisements
Track Severe Weather on mobile